Home > Products > Valid Products > TAF

000
FTUS44 KJAN 231700
TAFHBG
TAF
KHBG 231725Z 2318/2418 01005KT P6SM FEW250=



000
FTUS44 KJAN 231700
TAFGLH
TAF
KGLH 231725Z 2318/2418 36006KT P6SM BKN250=



000
FTUS44 KJAN 231700
TAFMEI
TAF
KMEI 231725Z 2318/2418 01005KT P6SM SCT250=



000
FTUS44 KJAN 231700
TAFJAN
TAF
KJAN 231725Z 2318/2418 35006KT P6SM SCT250=



000
FTUS44 KJAN 231700
TAFGWO
TAF
KGWO 231725Z 2318/2418 36005KT P6SM BKN250=



000
FTUS44 KJAN 231100
TAFGLH
TAF
KGLH 231120Z 2312/2412 01003KT P6SM SCT250
     FM231500 36006KT P6SM FEW150 SCT250=



000
FTUS44 KJAN 231100
TAFGWO
TAF
KGWO 231120Z 2312/2412 00000KT 4SM BR SCT250
     FM231400 36005KT P6SM FEW150 SCT250=



000
FTUS44 KJAN 231100
TAFJAN
TAF
KJAN 231120Z 2312/2412 04003KT P6SM FEW250
     FM231430 01006KT P6SM SCT250=



000
FTUS44 KJAN 231100
TAFMEI
TAF
KMEI 231120Z 2312/2412 36003KT P6SM SKC
     FM231430 01006KT P6SM SCT250=



000
FTUS44 KJAN 231100
TAFHBG
TAF
KHBG 231120Z 2312/2412 36003KT P6SM SKC
     FM231500 01006KT P6SM FEW250=



000
FTUS44 KJAN 231000 AAB
TAFGWO
TAF AMD
KGWO 231028Z 2310/2406 00000KT P6SM SCT250
     FM231430 36005KT P6SM FEW150 SCT250=



000
FTUS44 KJAN 230800 AAA
TAFGWO
TAF AMD
KGWO 230841Z 2309/2406 03003KT 3SM BR FEW250
     FM231300 36005KT P6SM FEW120 SCT250=



000
FTUS44 KJAN 230500
TAFJAN
TAF
KJAN 230520Z 2306/2406 03003KT P6SM SKC
     FM231430 01006KT P6SM FEW250=



000
FTUS44 KJAN 230500
TAFGLH
TAF
KGLH 230520Z 2306/2406 02003KT P6SM SKC
     FM231500 36006KT P6SM FEW120 SCT250=



000
FTUS44 KJAN 230500
TAFGWO
TAF
KGWO 230520Z 2306/2406 03003KT P6SM SKC
     FM231500 36005KT P6SM FEW120 SCT250=



000
FTUS44 KJAN 230500
TAFHBG
TAF
KHBG 230520Z 2306/2406 00000KT P6SM SKC
     FM231430 01006KT P6SM FEW250=



000
FTUS44 KJAN 230500
TAFMEI
TAF
KMEI 230520Z 2306/2406 00000KT P6SM SKC
     FM231430 01006KT P6SM FEW250=



000
FTUS44 KJAN 222300
TAFMEI
TAF
KMEI 222320Z 2300/2324 02009KT P6SM SKC=



000
FTUS44 KJAN 222300
TAFJAN
TAF
KJAN 222320Z 2300/2324 02005KT P6SM SKC=



000
FTUS44 KJAN 222300
TAFHBG
TAF
KHBG 222320Z 2300/2324 03005KT P6SM SKC=



000
FTUS44 KJAN 222300
TAFGWO
TAF
KGWO 222320Z 2300/2324 03005KT P6SM SKC=



000
FTUS44 KJAN 222300
TAFGLH
TAF
KGLH 222320Z 2300/2324 02007KT P6SM SKC=



000
FTUS44 KJAN 221700
TAFMEI
TAF
KMEI 221726Z 2218/2318 02009KT P6SM SKC=



000
FTUS44 KJAN 221700
TAFJAN
TAF
KJAN 221726Z 2218/2318 02009KT P6SM SKC=



000
FTUS44 KJAN 221700
TAFHBG
TAF
KHBG 221726Z 2218/2318 03008KT P6SM SKC=



000
FTUS44 KJAN 221700
TAFGLH
TAF
KGLH 221726Z 2218/2318 02010KT P6SM SKC=



000
FTUS44 KJAN 221700
TAFGWO
TAF
KGWO 221726Z 2218/2318 03009KT P6SM SKC=



000
FTUS44 KJAN 221700
TAFHBG
TAF
KHBG 221726Z 2218/2318 03008KT P6SM SKC=



000
FTUS44 KJAN 221700
TAFGLH
TAF
KGLH 221726Z 2218/2318 02010KT P6SM SKC=



000
FTUS44 KJAN 221700
TAFMEI
TAF
KMEI 221726Z 2218/2318 02009KT P6SM SKC=



000
FTUS44 KJAN 221700
TAFJAN
TAF
KJAN 221726Z 2218/2318 02009KT P6SM SKC=



000
FTUS44 KJAN 221700
TAFGWO
TAF
KGWO 221726Z 2218/2318 03009KT P6SM SKC=



000
FTUS44 KJAN 221100
TAFMEI
TAF
KMEI 221120Z 2212/2312 36005KT 6SM BR FEW002
     FM221300 03008KT P6SM SKC=



000
FTUS44 KJAN 221100
TAFGWO
TAF
KGWO 221120Z 2212/2312 03003KT P6SM SKC
     FM221500 04008KT P6SM SKC=



000
FTUS44 KJAN 221100
TAFJAN
TAF
KJAN 221120Z 2212/2312 00000KT P6SM SKC
     FM221500 03008KT P6SM SKC=



000
FTUS44 KJAN 221100
TAFGLH
TAF
KGLH 221120Z 2212/2312 01004KT P6SM SKC
     FM221500 03010KT P6SM SKC=



000
FTUS44 KJAN 221100
TAFHBG
TAF
KHBG 221120Z 2212/2312 00000KT 6SM BR SKC
     FM221300 02007KT P6SM SKC=



000
FTUS44 KJAN 220500
TAFGLH
TAF
KGLH 220521Z 2206/2306 01004KT P6SM SKC
     FM221500 03010KT P6SM SKC=



000
FTUS44 KJAN 220500
TAFJAN
TAF
KJAN 220521Z 2206/2306 02003KT P6SM SKC
     FM221500 03008KT P6SM SKC=



000
FTUS44 KJAN 220500
TAFMEI
TAF
KMEI 220521Z 2206/2306 02003KT P6SM SKC
     FM221500 03008KT P6SM SKC=



000
FTUS44 KJAN 220500
TAFGWO
TAF
KGWO 220521Z 2206/2306 02003KT P6SM SKC
     FM221500 04008KT P6SM SKC=



000
FTUS44 KJAN 220500
TAFHBG
TAF
KHBG 220521Z 2206/2306 00000KT P6SM SKC
     FM220900 00000KT 5SM BR SKC
     FM221300 02007KT P6SM SKC=



000
FTUS44 KJAN 220500
TAFJAN
TAF
KJAN 220521Z 2206/2306 02003KT P6SM SKC
     FM221500 03008KT P6SM SKC=



000
FTUS44 KJAN 220500
TAFMEI
TAF
KMEI 220521Z 2206/2306 02003KT P6SM SKC
     FM221500 03008KT P6SM SKC=



000
FTUS44 KJAN 220500
TAFGWO
TAF
KGWO 220521Z 2206/2306 02003KT P6SM SKC
     FM221500 04008KT P6SM SKC=



000
FTUS44 KJAN 220500
TAFGLH
TAF
KGLH 220521Z 2206/2306 01004KT P6SM SKC
     FM221500 03010KT P6SM SKC=



000
FTUS44 KJAN 220500
TAFHBG
TAF
KHBG 220521Z 2206/2306 00000KT P6SM SKC
     FM220900 00000KT 5SM BR SKC
     FM221300 02007KT P6SM SKC=



000
FTUS44 KJAN 212300
TAFJAN
TAF
KJAN 212320Z 2200/2224 35006KT P6SM SKC=



000
FTUS44 KJAN 212300
TAFMEI
TAF
KMEI 212320Z 2200/2224 35007KT P6SM SKC=



000
FTUS44 KJAN 212300
TAFHBG
TAF
KHBG 212320Z 2200/2224 01006KT P6SM SKC=



000
FTUS44 KJAN 212300
TAFGWO
TAF
KGWO 212320Z 2200/2224 35007KT P6SM SKC=



000
FTUS44 KJAN 212300
TAFGLH
TAF
KGLH 212320Z 2200/2224 34008KT P6SM SKC=



000
FTUS44 KJAN 212300
TAFJAN
TAF
KJAN 212320Z 2200/2224 35006KT P6SM SKC=



000
FTUS44 KJAN 212300
TAFMEI
TAF
KMEI 212320Z 2200/2224 35007KT P6SM SKC=



000
FTUS44 KJAN 212300
TAFGLH
TAF
KGLH 212320Z 2200/2224 34008KT P6SM SKC=



000
FTUS44 KJAN 212300
TAFGWO
TAF
KGWO 212320Z 2200/2224 35007KT P6SM SKC=



000
FTUS44 KJAN 212300
TAFHBG
TAF
KHBG 212320Z 2200/2224 01006KT P6SM SKC=



000
FTUS44 KJAN 211700
TAFJAN
TAF
KJAN 211729Z 2118/2218 35006KT P6SM SKC=



000
FTUS44 KJAN 211700
TAFGWO
TAF
KGWO 211729Z 2118/2218 35007KT P6SM SKC=



000
FTUS44 KJAN 211700
TAFMEI
TAF
KMEI 211729Z 2118/2218 35007KT P6SM SKC=



000
FTUS44 KJAN 211700
TAFHBG
TAF
KHBG 211729Z 2118/2218 01006KT P6SM SKC=



000
FTUS44 KJAN 211700
TAFGLH
TAF
KGLH 211729Z 2118/2218 34008KT P6SM SKC=



000
FTUS44 KJAN 211100 RRA
TAFGLH
TAF
KGLH 211156Z 2112/2212 00000KT 5SM BR SKC
     FM211300 35006KT P6SM SKC=



000
FTUS44 KJAN 211100 RRA
TAFGLH
TAF
KGLH 211156Z 2112/2212 00000KT 5SM BR SKC
     FM211300 35006KT P6SM SKC=



000
FTUS44 KJAN 211100
TAFJAN
TAF
KJAN 211120Z 2112/2212 02004KT P6SM SKC=



000
FTUS44 KJAN 211100
TAFHBG
TAF
KHBG 211120Z 2112/2212 02004KT P6SM SKC=



000
FTUS44 KJAN 211100
TAFGWO
TAF
KGWO 211120Z 2112/2212 35005KT P6SM SKC=



000
FTUS44 KJAN 211100
TAFHBG
TAF
KHBG 211120Z 2112/2212 02004KT P6SM SKC=



000
FTUS44 KJAN 211100
TAFGLH
TAF
KGLH 211120Z 2112/2212 00000KT 3SM BR BKN003
     FM211300 35006KT P6SM SKC=



000
FTUS44 KJAN 211100
TAFJAN
TAF
KJAN 211120Z 2112/2212 02004KT P6SM SKC=



000
FTUS44 KJAN 211100
TAFMEI
TAF
KMEI 211120Z 2112/2212 02004KT P6SM SKC=



000
FTUS44 KJAN 211100
TAFGLH
TAF
KGLH 211120Z 2112/2212 00000KT 3SM BR BKN003
     FM211300 35006KT P6SM SKC=



000
FTUS44 KJAN 211100
TAFGWO
TAF
KGWO 211120Z 2112/2212 35005KT P6SM SKC=



000
FTUS44 KJAN 211100
TAFMEI
TAF
KMEI 211120Z 2112/2212 02004KT P6SM SKC=



000
FTUS44 KJAN 210500
TAFMEI
TAF
KMEI 210520Z 2106/2206 00000KT P6SM SKC
      TEMPO 2110/2113 4SM BR
     FM211400 01005KT P6SM SKC=



000
FTUS44 KJAN 210500
TAFHBG
TAF
KHBG 210520Z 2106/2206 35004KT P6SM SKC=



000
FTUS44 KJAN 210500
TAFJAN
TAF
KJAN 210520Z 2106/2206 01004KT P6SM SKC=



000
FTUS44 KJAN 210500
TAFGLH
TAF
KGLH 210520Z 2106/2206 00000KT P6SM SKC
     FM211500 35006KT P6SM SKC=



000
FTUS44 KJAN 210500
TAFGWO
TAF
KGWO 210520Z 2106/2206 00000KT P6SM SKC
      TEMPO 2110/2113 4SM BR
     FM211400 35005KT P6SM SKC=



000
FTUS44 KJAN 202300
TAFHBG
TAF
KHBG 202320Z 2100/2124 35003KT P6SM SCT250=



000
FTUS44 KJAN 202300
TAFMEI
TAF
KMEI 202320Z 2100/2124 35005KT P6SM SCT250=



000
FTUS44 KJAN 202300
TAFJAN
TAF
KJAN 202320Z 2100/2124 36004KT P6SM SCT250=



000
FTUS44 KJAN 202300
TAFGWO
TAF
KGWO 202320Z 2100/2124 00000KT P6SM SCT250
     FM211500 01006KT P6SM SCT100=



000
FTUS44 KJAN 202300
TAFGLH
TAF
KGLH 202320Z 2100/2124 33003KT P6SM SCT250=



    US Dept of Commerce
    National Oceanic and Atmospheric Administration
    National Weather Service
    1325 East West Highway
    Silver Spring, MD 20910
    Page Author: NWS Internet Services Team
Disclaimer
Information Quality
Credits
Glossary
Privacy Policy
Freedom of Information Act (FOIA)
About Us
Career Opportunities